sensor_id;sensor_type;location;lat;lon;timestamp;P1;durP1;ratioP1;P2;durP2;ratioP2
12908;SDS011;6522;49.622;6.126;2022-09-17T00:00:13;8.93;;;4.47;;
12908;SDS011;6522;49.622;6.126;2022-09-17T00:03:00;7.83;;;4.60;;
12908;SDS011;6522;49.622;6.126;2022-09-17T00:05:47;7.95;;;4.25;;
12908;SDS011;6522;49.622;6.126;2022-09-17T00:08:35;7.07;;;4.90;;
12908;SDS011;6522;49.622;6.126;2022-09-17T00:11:23;7.22;;;4.55;;
12908;SDS011;6522;49.622;6.126;2022-09-17T00:14:11;5.30;;;4.70;;
12908;SDS011;6522;49.622;6.126;2022-09-17T00:16:55;9.98;;;4.95;;
12908;SDS011;6522;49.622;6.126;2022-09-17T00:19:42;5.72;;;5.03;;
12908;SDS011;6522;49.622;6.126;2022-09-17T00:22:28;6.18;;;4.95;;
12908;SDS011;6522;49.622;6.126;2022-09-17T00:25:15;8.98;;;5.12;;
12908;SDS011;6522;49.622;6.126;2022-09-17T00:28:02;6.93;;;5.35;;
12908;SDS011;6522;49.622;6.126;2022-09-17T00:30:48;6.93;;;4.45;;
12908;SDS011;6522;49.622;6.126;2022-09-17T00:33:35;9.70;;;5.20;;
12908;SDS011;6522;49.622;6.126;2022-09-17T00:36:22;9.35;;;5.45;;
12908;SDS011;6522;49.622;6.126;2022-09-17T00:39:12;6.50;;;5.22;;
12908;SDS011;6522;49.622;6.126;2022-09-17T00:41:55;7.07;;;5.35;;
12908;SDS011;6522;49.622;6.126;2022-09-17T00:44:47;7.55;;;5.55;;
12908;SDS011;6522;49.622;6.126;2022-09-17T00:47:43;7.37;;;5.57;;
12908;SDS011;6522;49.622;6.126;2022-09-17T00:50:25;7.37;;;5.03;;
12908;SDS011;6522;49.622;6.126;2022-09-17T00:53:10;6.32;;;4.95;;
12908;SDS011;6522;49.622;6.126;2022-09-17T00:56:03;10.23;;;5.57;;
12908;SDS011;6522;49.622;6.126;2022-09-17T00:58:49;7.20;;;4.95;;
12908;SDS011;6522;49.622;6.126;2022-09-17T01:01:35;5.70;;;4.60;;
12908;SDS011;6522;49.622;6.126;2022-09-17T01:04:22;4.37;;;3.97;;
12908;SDS011;6522;49.622;6.126;2022-09-17T01:13:27;6.32;;;4.12;;
12908;SDS011;6522;49.622;6.126;2022-09-17T01:22:06;5.28;;;4.45;;
12908;SDS011;6522;49.622;6.126;2022-09-17T01:31:04;5.70;;;3.90;;
12908;SDS011;6522;49.622;6.126;2022-09-17T01:34:00;7.78;;;4.60;;
12908;SDS011;6522;49.622;6.126;2022-09-17T01:36:49;8.30;;;4.22;;
12908;SDS011;6522;49.622;6.126;2022-09-17T01:39:43;10.38;;;4.25;;
12908;SDS011;6522;49.622;6.126;2022-09-17T01:42:31;5.07;;;3.90;;
12908;SDS011;6522;49.622;6.126;2022-09-17T01:51:05;4.62;;;3.37;;
12908;SDS011;6522;49.622;6.126;2022-09-17T01:56:43;6.85;;;3.95;;
12908;SDS011;6522;49.622;6.126;2022-09-17T01:59:29;5.95;;;4.18;;
12908;SDS011;6522;49.622;6.126;2022-09-17T02:05:14;6.07;;;3.70;;
12908;SDS011;6522;49.622;6.126;2022-09-17T02:07:59;8.30;;;3.40;;
12908;SDS011;6522;49.622;6.126;2022-09-17T02:10:49;6.00;;;3.55;;
12908;SDS011;6522;49.622;6.126;2022-09-17T02:13:51;9.82;;;4.22;;
12908;SDS011;6522;49.622;6.126;2022-09-17T02:16:35;6.82;;;4.78;;
12908;SDS011;6522;49.622;6.126;2022-09-17T02:19:22;5.05;;;3.78;;
12908;SDS011;6522;49.622;6.126;2022-09-17T02:25:03;7.82;;;3.72;;
12908;SDS011;6522;49.622;6.126;2022-09-17T02:27:51;7.80;;;3.67;;
12908;SDS011;6522;49.622;6.126;2022-09-17T02:30:36;7.07;;;4.55;;
12908;SDS011;6522;49.622;6.126;2022-09-17T02:33:23;12.70;;;4.60;;
12908;SDS011;6522;49.622;6.126;2022-09-17T02:36:10;7.03;;;4.70;;
12908;SDS011;6522;49.622;6.126;2022-09-17T02:38:57;6.90;;;3.35;;
12908;SDS011;6522;49.622;6.126;2022-09-17T02:42:04;7.93;;;4.43;;
12908;SDS011;6522;49.622;6.126;2022-09-17T02:44:36;7.95;;;3.65;;
12908;SDS011;6522;49.622;6.126;2022-09-17T02:50:29;5.68;;;4.25;;
12908;SDS011;6522;49.622;6.126;2022-09-17T03:01:59;8.63;;;4.28;;
12908;SDS011;6522;49.622;6.126;2022-09-17T03:04:45;5.35;;;4.25;;
12908;SDS011;6522;49.622;6.126;2022-09-17T03:07:30;8.32;;;4.25;;
12908;SDS011;6522;49.622;6.126;2022-09-17T03:10:17;7.00;;;4.30;;
12908;SDS011;6522;49.622;6.126;2022-09-17T03:13:04;5.55;;;4.25;;
12908;SDS011;6522;49.622;6.126;2022-09-17T03:15:50;8.23;;;4.53;;
12908;SDS011;6522;49.622;6.126;2022-09-17T03:18:37;5.82;;;4.05;;
12908;SDS011;6522;49.622;6.126;2022-09-17T03:21:24;5.55;;;3.95;;
12908;SDS011;6522;49.622;6.126;2022-09-17T03:24:11;6.45;;;4.37;;
12908;SDS011;6522;49.622;6.126;2022-09-17T03:26:58;5.55;;;4.32;;
12908;SDS011;6522;49.622;6.126;2022-09-17T03:29:45;7.05;;;4.80;;
12908;SDS011;6522;49.622;6.126;2022-09-17T03:32:31;6.60;;;4.90;;
12908;SDS011;6522;49.622;6.126;2022-09-17T03:35:18;7.87;;;4.32;;
12908;SDS011;6522;49.622;6.126;2022-09-17T03:38:05;7.40;;;4.53;;
12908;SDS011;6522;49.622;6.126;2022-09-17T03:41:01;7.10;;;5.00;;
12908;SDS011;6522;49.622;6.126;2022-09-17T03:43:47;8.60;;;5.40;;
12908;SDS011;6522;49.622;6.126;2022-09-17T03:46:34;9.75;;;5.00;;
12908;SDS011;6522;49.622;6.126;2022-09-17T03:49:21;8.18;;;4.65;;
12908;SDS011;6522;49.622;6.126;2022-09-17T03:52:07;8.90;;;3.92;;
12908;SDS011;6522;49.622;6.126;2022-09-17T03:54:54;4.60;;;3.80;;
12908;SDS011;6522;49.622;6.126;2022-09-17T03:57:41;9.30;;;3.55;;
12908;SDS011;6522;49.622;6.126;2022-09-17T04:00:28;12.07;;;4.40;;
12908;SDS011;6522;49.622;6.126;2022-09-17T04:03:15;5.97;;;4.20;;
12908;SDS011;6522;49.622;6.126;2022-09-17T04:06:02;7.68;;;4.37;;
12908;SDS011;6522;49.622;6.126;2022-09-17T04:08:48;5.68;;;4.20;;
12908;SDS011;6522;49.622;6.126;2022-09-17T04:11:35;11.10;;;4.90;;
12908;SDS011;6522;49.622;6.126;2022-09-17T04:14:21;7.87;;;5.20;;
12908;SDS011;6522;49.622;6.126;2022-09-17T04:17:08;7.55;;;4.12;;
12908;SDS011;6522;49.622;6.126;2022-09-17T04:19:55;8.95;;;4.85;;
12908;SDS011;6522;49.622;6.126;2022-09-17T04:22:42;7.60;;;4.53;;
12908;SDS011;6522;49.622;6.126;2022-09-17T04:25:29;6.72;;;5.03;;
12908;SDS011;6522;49.622;6.126;2022-09-17T04:28:16;8.15;;;4.05;;
12908;SDS011;6522;49.622;6.126;2022-09-17T04:31:03;5.68;;;4.47;;
12908;SDS011;6522;49.622;6.126;2022-09-17T04:33:50;7.75;;;4.10;;
12908;SDS011;6522;49.622;6.126;2022-09-17T04:36:37;8.27;;;4.50;;
12908;SDS011;6522;49.622;6.126;2022-09-17T04:39:24;7.10;;;4.35;;
12908;SDS011;6522;49.622;6.126;2022-09-17T04:42:11;9.95;;;5.43;;
12908;SDS011;6522;49.622;6.126;2022-09-17T04:44:57;9.20;;;5.12;;
12908;SDS011;6522;49.622;6.126;2022-09-17T04:47:44;7.75;;;4.70;;
12908;SDS011;6522;49.622;6.126;2022-09-17T04:50:31;7.00;;;4.40;;
12908;SDS011;6522;49.622;6.126;2022-09-17T04:53:18;7.37;;;3.87;;
12908;SDS011;6522;49.622;6.126;2022-09-17T04:56:05;6.93;;;4.00;;
12908;SDS011;6522;49.622;6.126;2022-09-17T04:58:52;8.93;;;4.22;;
12908;SDS011;6522;49.622;6.126;2022-09-17T05:01:38;5.82;;;4.55;;
12908;SDS011;6522;49.622;6.126;2022-09-17T05:04:25;9.15;;;4.95;;
12908;SDS011;6522;49.622;6.126;2022-09-17T05:07:12;6.37;;;5.22;;
12908;SDS011;6522;49.622;6.126;2022-09-17T05:09:58;7.85;;;4.70;;
12908;SDS011;6522;49.622;6.126;2022-09-17T05:12:46;6.78;;;5.62;;
12908;SDS011;6522;49.622;6.126;2022-09-17T05:15:33;6.37;;;4.15;;
12908;SDS011;6522;49.622;6.126;2022-09-17T05:18:19;9.57;;;4.55;;
12908;SDS011;6522;49.622;6.126;2022-09-17T05:21:06;8.10;;;5.47;;
12908;SDS011;6522;49.622;6.126;2022-09-17T05:23:53;6.30;;;4.47;;
12908;SDS011;6522;49.622;6.126;2022-09-17T05:26:39;14.80;;;4.62;;
12908;SDS011;6522;49.622;6.126;2022-09-17T05:29:26;5.18;;;4.15;;
12908;SDS011;6522;49.622;6.126;2022-09-17T05:32:13;6.40;;;3.95;;
12908;SDS011;6522;49.622;6.126;2022-09-17T05:35:00;7.55;;;4.93;;
12908;SDS011;6522;49.622;6.126;2022-09-17T05:37:47;6.57;;;4.30;;
12908;SDS011;6522;49.622;6.126;2022-09-17T05:40:34;7.20;;;4.20;;
12908;SDS011;6522;49.622;6.126;2022-09-17T05:43:20;5.53;;;4.12;;
12908;SDS011;6522;49.622;6.126;2022-09-17T05:46:07;4.60;;;3.62;;
12908;SDS011;6522;49.622;6.126;2022-09-17T05:48:56;9.25;;;3.70;;
12908;SDS011;6522;49.622;6.126;2022-09-17T05:51:43;5.28;;;3.83;;
12908;SDS011;6522;49.622;6.126;2022-09-17T05:54:30;8.18;;;3.50;;
12908;SDS011;6522;49.622;6.126;2022-09-17T05:57:17;5.75;;;4.05;;
12908;SDS011;6522;49.622;6.126;2022-09-17T06:00:04;10.35;;;5.50;;
12908;SDS011;6522;49.622;6.126;2022-09-17T06:02:57;9.57;;;4.45;;
12908;SDS011;6522;49.622;6.126;2022-09-17T06:05:41;7.20;;;4.78;;
12908;SDS011;6522;49.622;6.126;2022-09-17T06:08:27;12.65;;;5.60;;
12908;SDS011;6522;49.622;6.126;2022-09-17T06:11:14;9.45;;;4.25;;
12908;SDS011;6522;49.622;6.126;2022-09-17T06:14:02;6.28;;;4.22;;
12908;SDS011;6522;49.622;6.126;2022-09-17T06:16:47;8.57;;;5.05;;
12908;SDS011;6522;49.622;6.126;2022-09-17T06:19:34;5.87;;;4.55;;
12908;SDS011;6522;49.622;6.126;2022-09-17T06:22:21;5.85;;;3.55;;
12908;SDS011;6522;49.622;6.126;2022-09-17T06:25:07;5.35;;;4.03;;
12908;SDS011;6522;49.622;6.126;2022-09-17T06:27:55;8.32;;;4.28;;
12908;SDS011;6522;49.622;6.126;2022-09-17T06:30:41;7.43;;;4.62;;
12908;SDS011;6522;49.622;6.126;2022-09-17T06:33:28;10.98;;;4.72;;
12908;SDS011;6522;49.622;6.126;2022-09-17T06:36:15;5.30;;;4.12;;
12908;SDS011;6522;49.622;6.126;2022-09-17T06:39:01;6.57;;;3.42;;
12908;SDS011;6522;49.622;6.126;2022-09-17T06:41:48;7.40;;;3.75;;
12908;SDS011;6522;49.622;6.126;2022-09-17T06:44:35;4.62;;;3.65;;
12908;SDS011;6522;49.622;6.126;2022-09-17T06:47:23;5.55;;;3.65;;
12908;SDS011;6522;49.622;6.126;2022-09-17T06:50:09;6.50;;;3.95;;
12908;SDS011;6522;49.622;6.126;2022-09-17T06:52:56;8.13;;;4.20;;
12908;SDS011;6522;49.622;6.126;2022-09-17T06:55:42;7.95;;;4.53;;
12908;SDS011;6522;49.622;6.126;2022-09-17T06:58:29;12.65;;;4.03;;
12908;SDS011;6522;49.622;6.126;2022-09-17T07:01:16;5.12;;;4.00;;
12908;SDS011;6522;49.622;6.126;2022-09-17T07:04:03;7.40;;;4.68;;
12908;SDS011;6522;49.622;6.126;2022-09-17T07:06:49;6.18;;;3.70;;
12908;SDS011;6522;49.622;6.126;2022-09-17T07:09:36;7.80;;;4.93;;
12908;SDS011;6522;49.622;6.126;2022-09-17T07:12:23;5.60;;;3.80;;
12908;SDS011;6522;49.622;6.126;2022-09-17T07:15:10;5.43;;;4.30;;
12908;SDS011;6522;49.622;6.126;2022-09-17T07:17:57;6.30;;;4.03;;
12908;SDS011;6522;49.622;6.126;2022-09-17T07:20:50;4.15;;;3.22;;
12908;SDS011;6522;49.622;6.126;2022-09-17T07:23:31;7.25;;;3.10;;
12908;SDS011;6522;49.622;6.126;2022-09-17T07:26:17;5.53;;;3.80;;
12908;SDS011;6522;49.622;6.126;2022-09-17T07:29:03;4.53;;;4.05;;
12908;SDS011;6522;49.622;6.126;2022-09-17T07:31:50;4.85;;;3.60;;
12908;SDS011;6522;49.622;6.126;2022-09-17T07:34:37;7.35;;;4.65;;
12908;SDS011;6522;49.622;6.126;2022-09-17T07:37:24;4.72;;;3.60;;
12908;SDS011;6522;49.622;6.126;2022-09-17T07:40:11;6.28;;;4.70;;
12908;SDS011;6522;49.622;6.126;2022-09-17T07:42:57;5.22;;;4.72;;
12908;SDS011;6522;49.622;6.126;2022-09-17T07:45:44;6.28;;;4.65;;
12908;SDS011;6522;49.622;6.126;2022-09-17T07:48:31;7.18;;;4.22;;
12908;SDS011;6522;49.622;6.126;2022-09-17T07:51:18;5.00;;;3.90;;
12908;SDS011;6522;49.622;6.126;2022-09-17T07:54:04;7.62;;;4.57;;
12908;SDS011;6522;49.622;6.126;2022-09-17T07:56:50;7.65;;;4.28;;
12908;SDS011;6522;49.622;6.126;2022-09-17T07:59:37;11.15;;;5.65;;
12908;SDS011;6522;49.622;6.126;2022-09-17T08:02:24;6.90;;;3.92;;
12908;SDS011;6522;49.622;6.126;2022-09-17T08:05:10;9.93;;;4.97;;
12908;SDS011;6522;49.622;6.126;2022-09-17T08:07:57;6.60;;;3.92;;
12908;SDS011;6522;49.622;6.126;2022-09-17T08:10:44;7.25;;;4.90;;
12908;SDS011;6522;49.622;6.126;2022-09-17T08:13:31;7.28;;;4.70;;
12908;SDS011;6522;49.622;6.126;2022-09-17T08:16:17;5.97;;;3.70;;
12908;SDS011;6522;49.622;6.126;2022-09-17T08:19:04;9.95;;;3.67;;
12908;SDS011;6522;49.622;6.126;2022-09-17T08:21:50;6.53;;;4.68;;
12908;SDS011;6522;49.622;6.126;2022-09-17T08:24:37;6.07;;;4.10;;
12908;SDS011;6522;49.622;6.126;2022-09-17T08:27:24;7.93;;;4.37;;
12908;SDS011;6522;49.622;6.126;2022-09-17T08:30:10;8.65;;;3.90;;
12908;SDS011;6522;49.622;6.126;2022-09-17T08:32:57;5.10;;;4.00;;
12908;SDS011;6522;49.622;6.126;2022-09-17T08:35:50;5.30;;;3.83;;
12908;SDS011;6522;49.622;6.126;2022-09-17T08:38:36;7.53;;;3.85;;
12908;SDS011;6522;49.622;6.126;2022-09-17T08:44:26;6.03;;;3.70;;
12908;SDS011;6522;49.622;6.126;2022-09-17T08:50:00;6.35;;;3.22;;
12908;SDS011;6522;49.622;6.126;2022-09-17T08:58:48;7.10;;;6.43;;
12908;SDS011;6522;49.622;6.126;2022-09-17T09:04:22;8.50;;;7.20;;
12908;SDS011;6522;49.622;6.126;2022-09-17T09:07:10;8.43;;;7.60;;
12908;SDS011;6522;49.622;6.126;2022-09-17T09:10:00;9.88;;;8.77;;
12908;SDS011;6522;49.622;6.126;2022-09-17T09:12:38;9.00;;;8.25;;
12908;SDS011;6522;49.622;6.126;2022-09-17T09:15:31;13.18;;;8.70;;
12908;SDS011;6522;49.622;6.126;2022-09-17T09:18:21;7.47;;;6.78;;
12908;SDS011;6522;49.622;6.126;2022-09-17T09:24:21;9.82;;;9.00;;
12908;SDS011;6522;49.622;6.126;2022-09-17T09:27:15;9.32;;;8.27;;
12908;SDS011;6522;49.622;6.126;2022-09-17T09:33:06;9.27;;;8.57;;
12908;SDS011;6522;49.622;6.126;2022-09-17T09:35:50;10.13;;;9.20;;
12908;SDS011;6522;49.622;6.126;2022-09-17T09:38:42;9.50;;;8.90;;
12908;SDS011;6522;49.622;6.126;2022-09-17T09:41:30;10.80;;;9.90;;
12908;SDS011;6522;49.622;6.126;2022-09-17T09:44:13;13.35;;;12.43;;
12908;SDS011;6522;49.622;6.126;2022-09-17T09:47:12;15.60;;;14.80;;
12908;SDS011;6522;49.622;6.126;2022-09-17T09:55:46;16.73;;;15.73;;
12908;SDS011;6522;49.622;6.126;2022-09-17T10:01:21;14.35;;;13.50;;
12908;SDS011;6522;49.622;6.126;2022-09-17T10:07:05;15.35;;;14.45;;
12908;SDS011;6522;49.622;6.126;2022-09-17T10:09:51;15.60;;;14.40;;
12908;SDS011;6522;49.622;6.126;2022-09-17T10:12:37;17.17;;;16.37;;
12908;SDS011;6522;49.622;6.126;2022-09-17T10:15:25;15.03;;;14.20;;
12908;SDS011;6522;49.622;6.126;2022-09-17T10:18:13;18.47;;;17.37;;
12908;SDS011;6522;49.622;6.126;2022-09-17T10:20:58;15.07;;;13.97;;
12908;SDS011;6522;49.622;6.126;2022-09-17T10:23:44;15.50;;;14.40;;
12908;SDS011;6522;49.622;6.126;2022-09-17T10:26:32;17.20;;;16.27;;
12908;SDS011;6522;49.622;6.126;2022-09-17T10:29:18;14.90;;;13.90;;
12908;SDS011;6522;49.622;6.126;2022-09-17T10:32:04;14.85;;;13.95;;
12908;SDS011;6522;49.622;6.126;2022-09-17T10:35:01;16.40;;;15.67;;
12908;SDS011;6522;49.622;6.126;2022-09-17T10:37:47;14.68;;;13.77;;
12908;SDS011;6522;49.622;6.126;2022-09-17T10:40:33;14.73;;;13.73;;
12908;SDS011;6522;49.622;6.126;2022-09-17T10:43:21;16.73;;;15.73;;
12908;SDS011;6522;49.622;6.126;2022-09-17T10:46:08;14.60;;;13.50;;
12908;SDS011;6522;49.622;6.126;2022-09-17T10:49:09;14.30;;;13.40;;
12908;SDS011;6522;49.622;6.126;2022-09-17T10:52:03;17.27;;;16.27;;
12908;SDS011;6522;49.622;6.126;2022-09-17T10:57:46;17.57;;;16.27;;
12908;SDS011;6522;49.622;6.126;2022-09-17T11:01:16;14.80;;;13.60;;
12908;SDS011;6522;49.622;6.126;2022-09-17T11:03:18;16.70;;;15.80;;
12908;SDS011;6522;49.622;6.126;2022-09-17T11:09:11;14.30;;;13.50;;
12908;SDS011;6522;49.622;6.126;2022-09-17T11:14:48;14.40;;;13.50;;
12908;SDS011;6522;49.622;6.126;2022-09-17T11:23:50;15.77;;;14.97;;
12908;SDS011;6522;49.622;6.126;2022-09-17T11:26:45;14.75;;;13.85;;
12908;SDS011;6522;49.622;6.126;2022-09-17T11:35:24;14.30;;;13.40;;
12908;SDS011;6522;49.622;6.126;2022-09-17T11:38:15;13.32;;;12.60;;
12908;SDS011;6522;49.622;6.126;2022-09-17T11:41:03;13.80;;;13.10;;
12908;SDS011;6522;49.622;6.126;2022-09-17T11:44:09;12.27;;;11.48;;
12908;SDS011;6522;49.622;6.126;2022-09-17T11:46:44;12.95;;;12.25;;
12908;SDS011;6522;49.622;6.126;2022-09-17T11:49:34;14.10;;;13.30;;
12908;SDS011;6522;49.622;6.126;2022-09-17T11:55:22;13.20;;;12.40;;
12908;SDS011;6522;49.622;6.126;2022-09-17T11:58:13;16.50;;;15.50;;
12908;SDS011;6522;49.622;6.126;2022-09-17T12:00:59;14.30;;;13.50;;
12908;SDS011;6522;49.622;6.126;2022-09-17T12:03:49;13.90;;;13.10;;
12908;SDS011;6522;49.622;6.126;2022-09-17T12:06:38;16.90;;;15.90;;
12908;SDS011;6522;49.622;6.126;2022-09-17T12:09:24;13.85;;;13.00;;
12908;SDS011;6522;49.622;6.126;2022-09-17T12:12:15;13.77;;;13.00;;
12908;SDS011;6522;49.622;6.126;2022-09-17T12:15:23;16.50;;;15.70;;
12908;SDS011;6522;49.622;6.126;2022-09-17T12:17:49;13.40;;;12.70;;
12908;SDS011;6522;49.622;6.126;2022-09-17T12:20:34;13.50;;;12.70;;
12908;SDS011;6522;49.622;6.126;2022-09-17T12:23:31;16.07;;;15.37;;
12908;SDS011;6522;49.622;6.126;2022-09-17T12:38:43;13.33;;;12.43;;
12908;SDS011;6522;49.622;6.126;2022-09-17T12:41:42;13.82;;;13.00;;
12908;SDS011;6522;49.622;6.126;2022-09-17T12:47:38;16.83;;;15.52;;
12908;SDS011;6522;49.622;6.126;2022-09-17T12:50:23;15.75;;;15.05;;
12908;SDS011;6522;49.622;6.126;2022-09-17T12:53:10;15.73;;;15.03;;
12908;SDS011;6522;49.622;6.126;2022-09-17T12:56:04;13.80;;;13.00;;
12908;SDS011;6522;49.622;6.126;2022-09-17T12:58:58;14.30;;;13.20;;
12908;SDS011;6522;49.622;6.126;2022-09-17T13:01:43;16.00;;;15.20;;
12908;SDS011;6522;49.622;6.126;2022-09-17T13:07:21;13.60;;;12.80;;
12908;SDS011;6522;49.622;6.126;2022-09-17T13:15:52;13.13;;;12.40;;
12908;SDS011;6522;49.622;6.126;2022-09-17T13:18:47;15.50;;;14.80;;
12908;SDS011;6522;49.622;6.126;2022-09-17T13:21:31;12.77;;;12.07;;
12908;SDS011;6522;49.622;6.126;2022-09-17T13:24:16;12.70;;;12.00;;
12908;SDS011;6522;49.622;6.126;2022-09-17T13:27:02;15.25;;;14.55;;
12908;SDS011;6522;49.622;6.126;2022-09-17T13:38:12;13.50;;;12.80;;
12908;SDS011;6522;49.622;6.126;2022-09-17T13:41:16;14.15;;;13.10;;
12908;SDS011;6522;49.622;6.126;2022-09-17T13:43:46;13.65;;;12.98;;
12908;SDS011;6522;49.622;6.126;2022-09-17T13:46:33;14.95;;;14.07;;
12908;SDS011;6522;49.622;6.126;2022-09-17T13:49:19;15.20;;;14.50;;
12908;SDS011;6522;49.622;6.126;2022-09-17T13:52:06;15.90;;;15.20;;
12908;SDS011;6522;49.622;6.126;2022-09-17T13:54:52;15.73;;;15.03;;
12908;SDS011;6522;49.622;6.126;2022-09-17T13:57:47;13.40;;;12.70;;
12908;SDS011;6522;49.622;6.126;2022-09-17T14:09:33;15.27;;;14.47;;
12908;SDS011;6522;49.622;6.126;2022-09-17T14:13:02;13.00;;;12.40;;
12908;SDS011;6522;49.622;6.126;2022-09-17T14:21:22;15.57;;;14.87;;
12908;SDS011;6522;49.622;6.126;2022-09-17T14:24:03;15.10;;;14.40;;
12908;SDS011;6522;49.622;6.126;2022-09-17T14:26:58;15.52;;;14.75;;
12908;SDS011;6522;49.622;6.126;2022-09-17T14:35:42;12.10;;;11.50;;
12908;SDS011;6522;49.622;6.126;2022-09-17T14:38:39;13.35;;;12.52;;
12908;SDS011;6522;49.622;6.126;2022-09-17T14:41:25;11.10;;;10.50;;
12908;SDS011;6522;49.622;6.126;2022-09-17T14:44:18;11.30;;;10.60;;
12908;SDS011;6522;49.622;6.126;2022-09-17T14:47:07;10.23;;;9.70;;
12908;SDS011;6522;49.622;6.126;2022-09-17T14:49:53;10.00;;;9.20;;
12908;SDS011;6522;49.622;6.126;2022-09-17T14:52:40;7.55;;;7.05;;
12908;SDS011;6522;49.622;6.126;2022-09-17T14:55:27;8.65;;;4.40;;
12908;SDS011;6522;49.622;6.126;2022-09-17T14:58:33;4.57;;;4.28;;
12908;SDS011;6522;49.622;6.126;2022-09-17T15:01:23;4.07;;;3.78;;
12908;SDS011;6522;49.622;6.126;2022-09-17T15:07:05;4.22;;;3.50;;
12908;SDS011;6522;49.622;6.126;2022-09-17T15:09:51;3.80;;;3.33;;
12908;SDS011;6522;49.622;6.126;2022-09-17T15:12:38;3.30;;;3.00;;
12908;SDS011;6522;49.622;6.126;2022-09-17T15:15:24;2.65;;;2.45;;
12908;SDS011;6522;49.622;6.126;2022-09-17T15:18:12;3.70;;;2.40;;
12908;SDS011;6522;49.622;6.126;2022-09-17T15:20:58;2.70;;;2.50;;
12908;SDS011;6522;49.622;6.126;2022-09-17T15:23:45;2.50;;;2.20;;
12908;SDS011;6522;49.622;6.126;2022-09-17T15:26:32;6.35;;;2.92;;
12908;SDS011;6522;49.622;6.126;2022-09-17T15:29:19;4.43;;;2.60;;
12908;SDS011;6522;49.622;6.126;2022-09-17T15:32:05;2.40;;;2.00;;
12908;SDS011;6522;49.622;6.126;2022-09-17T15:37:58;2.55;;;2.00;;
12908;SDS011;6522;49.622;6.126;2022-09-17T15:40:44;2.90;;;1.60;;
12908;SDS011;6522;49.622;6.126;2022-09-17T15:43:31;2.85;;;1.67;;
12908;SDS011;6522;49.622;6.126;2022-09-17T15:49:52;3.53;;;2.05;;
12908;SDS011;6522;49.622;6.126;2022-09-17T15:55:02;3.40;;;2.50;;
12908;SDS011;6522;49.622;6.126;2022-09-17T15:57:49;7.45;;;2.00;;
12908;SDS011;6522;49.622;6.126;2022-09-17T16:00:35;2.85;;;2.03;;
12908;SDS011;6522;49.622;6.126;2022-09-17T16:09:34;3.92;;;2.80;;
12908;SDS011;6522;49.622;6.126;2022-09-17T16:11:51;8.15;;;2.85;;
12908;SDS011;6522;49.622;6.126;2022-09-17T16:14:41;4.05;;;2.35;;
12908;SDS011;6522;49.622;6.126;2022-09-17T16:17:29;3.08;;;2.58;;
12908;SDS011;6522;49.622;6.126;2022-09-17T16:20:17;4.45;;;2.78;;
12908;SDS011;6522;49.622;6.126;2022-09-17T16:23:02;5.15;;;3.42;;
12908;SDS011;6522;49.622;6.126;2022-09-17T16:25:49;5.70;;;2.50;;
12908;SDS011;6522;49.622;6.126;2022-09-17T16:28:36;6.28;;;3.40;;
12908;SDS011;6522;49.622;6.126;2022-09-17T16:31:22;6.28;;;3.40;;
12908;SDS011;6522;49.622;6.126;2022-09-17T16:34:09;5.10;;;1.70;;
12908;SDS011;6522;49.622;6.126;2022-09-17T16:36:56;4.70;;;3.03;;
12908;SDS011;6522;49.622;6.126;2022-09-17T16:39:43;4.78;;;2.67;;
12908;SDS011;6522;49.622;6.126;2022-09-17T16:42:30;8.15;;;2.90;;
12908;SDS011;6522;49.622;6.126;2022-09-17T16:45:16;5.05;;;2.67;;
12908;SDS011;6522;49.622;6.126;2022-09-17T16:48:03;6.50;;;2.97;;
12908;SDS011;6522;49.622;6.126;2022-09-17T16:50:50;3.85;;;2.40;;
12908;SDS011;6522;49.622;6.126;2022-09-17T16:53:36;3.55;;;2.83;;
12908;SDS011;6522;49.622;6.126;2022-09-17T16:56:23;3.97;;;2.60;;
12908;SDS011;6522;49.622;6.126;2022-09-17T16:59:10;3.85;;;2.08;;
12908;SDS011;6522;49.622;6.126;2022-09-17T17:01:57;9.68;;;2.90;;
12908;SDS011;6522;49.622;6.126;2022-09-17T17:04:44;5.00;;;3.00;;
12908;SDS011;6522;49.622;6.126;2022-09-17T17:07:31;5.97;;;3.00;;
12908;SDS011;6522;49.622;6.126;2022-09-17T17:10:18;6.12;;;2.97;;
12908;SDS011;6522;49.622;6.126;2022-09-17T17:13:04;4.35;;;2.67;;
12908;SDS011;6522;49.622;6.126;2022-09-17T17:15:51;3.22;;;2.90;;
12908;SDS011;6522;49.622;6.126;2022-09-17T17:18:40;6.35;;;3.42;;
12908;SDS011;6522;49.622;6.126;2022-09-17T17:21:24;13.18;;;3.03;;
12908;SDS011;6522;49.622;6.126;2022-09-17T17:24:11;2.50;;;2.25;;
12908;SDS011;6522;49.622;6.126;2022-09-17T17:26:58;4.85;;;2.35;;
12908;SDS011;6522;49.622;6.126;2022-09-17T17:29:45;3.33;;;2.40;;
12908;SDS011;6522;49.622;6.126;2022-09-17T17:32:32;6.65;;;1.87;;
12908;SDS011;6522;49.622;6.126;2022-09-17T17:35:19;8.05;;;2.92;;
12908;SDS011;6522;49.622;6.126;2022-09-17T17:38:05;2.67;;;2.22;;
12908;SDS011;6522;49.622;6.126;2022-09-17T17:41:06;4.72;;;2.40;;
12908;SDS011;6522;49.622;6.126;2022-09-17T17:43:52;2.83;;;1.90;;
12908;SDS011;6522;49.622;6.126;2022-09-17T17:46:38;9.85;;;2.87;;
12908;SDS011;6522;49.622;6.126;2022-09-17T17:49:25;4.55;;;2.50;;
12908;SDS011;6522;49.622;6.126;2022-09-17T17:52:12;4.15;;;2.22;;
12908;SDS011;6522;49.622;6.126;2022-09-17T17:54:59;4.60;;;3.22;;
12908;SDS011;6522;49.622;6.126;2022-09-17T17:57:45;4.43;;;2.10;;
12908;SDS011;6522;49.622;6.126;2022-09-17T18:00:32;3.15;;;2.30;;
12908;SDS011;6522;49.622;6.126;2022-09-17T18:03:19;3.97;;;2.33;;
12908;SDS011;6522;49.622;6.126;2022-09-17T18:06:05;3.97;;;1.87;;
12908;SDS011;6522;49.622;6.126;2022-09-17T18:08:52;4.00;;;1.92;;
12908;SDS011;6522;49.622;6.126;2022-09-17T18:11:39;7.60;;;2.03;;
12908;SDS011;6522;49.622;6.126;2022-09-17T18:14:26;3.58;;;2.05;;
12908;SDS011;6522;49.622;6.126;2022-09-17T18:17:13;4.90;;;2.33;;
12908;SDS011;6522;49.622;6.126;2022-09-17T18:19:59;2.80;;;1.70;;
12908;SDS011;6522;49.622;6.126;2022-09-17T18:22:46;4.15;;;1.70;;
12908;SDS011;6522;49.622;6.126;2022-09-17T18:25:33;5.53;;;1.90;;
12908;SDS011;6522;49.622;6.126;2022-09-17T18:28:20;4.68;;;2.60;;
12908;SDS011;6522;49.622;6.126;2022-09-17T18:31:12;3.65;;;2.05;;
12908;SDS011;6522;49.622;6.126;2022-09-17T18:33:57;6.47;;;2.62;;
12908;SDS011;6522;49.622;6.126;2022-09-17T18:36:43;6.00;;;1.85;;
12908;SDS011;6522;49.622;6.126;2022-09-17T18:39:29;3.80;;;1.90;;
12908;SDS011;6522;49.622;6.126;2022-09-17T18:42:16;3.65;;;2.00;;
12908;SDS011;6522;49.622;6.126;2022-09-17T18:45:03;7.68;;;1.98;;
12908;SDS011;6522;49.622;6.126;2022-09-17T18:47:51;3.78;;;1.80;;
12908;SDS011;6522;49.622;6.126;2022-09-17T18:50:37;4.75;;;1.85;;
12908;SDS011;6522;49.622;6.126;2022-09-17T18:53:28;3.67;;;1.67;;
12908;SDS011;6522;49.622;6.126;2022-09-17T18:56:14;4.25;;;1.83;;
12908;SDS011;6522;49.622;6.126;2022-09-17T18:59:00;3.75;;;1.60;;
12908;SDS011;6522;49.622;6.126;2022-09-17T19:01:47;3.05;;;1.40;;
12908;SDS011;6522;49.622;6.126;2022-09-17T19:04:34;3.62;;;1.65;;
12908;SDS011;6522;49.622;6.126;2022-09-17T19:07:21;5.20;;;1.75;;
12908;SDS011;6522;49.622;6.126;2022-09-17T19:10:07;5.30;;;2.15;;
12908;SDS011;6522;49.622;6.126;2022-09-17T19:12:54;2.75;;;1.52;;
12908;SDS011;6522;49.622;6.126;2022-09-17T19:15:41;4.05;;;1.80;;
12908;SDS011;6522;49.622;6.126;2022-09-17T19:18:28;3.70;;;1.60;;
12908;SDS011;6522;49.622;6.126;2022-09-17T19:21:16;3.08;;;1.37;;
12908;SDS011;6522;49.622;6.126;2022-09-17T19:24:01;2.70;;;1.50;;
12908;SDS011;6522;49.622;6.126;2022-09-17T19:26:48;2.50;;;1.67;;
12908;SDS011;6522;49.622;6.126;2022-09-17T19:29:35;3.70;;;1.52;;
12908;SDS011;6522;49.622;6.126;2022-09-17T19:32:22;2.67;;;1.70;;
12908;SDS011;6522;49.622;6.126;2022-09-17T19:35:09;4.80;;;1.50;;
12908;SDS011;6522;49.622;6.126;2022-09-17T19:37:56;3.45;;;1.60;;
12908;SDS011;6522;49.622;6.126;2022-09-17T19:40:42;3.37;;;1.90;;
12908;SDS011;6522;49.622;6.126;2022-09-17T19:43:29;4.22;;;1.80;;
12908;SDS011;6522;49.622;6.126;2022-09-17T19:46:17;4.05;;;1.80;;
12908;SDS011;6522;49.622;6.126;2022-09-17T19:49:04;5.45;;;2.25;;